Time;durP1;ratioP1;P1;durP2;ratioP2;P2;SDS_P1;SDS_P2;PMS_P1;PMS_P2;Temp;Humidity;BMP_temperature;BMP_pressure;BME280_temperature;BME280_humidity;BME280_pressure;Samples;Min_cycle;Max_cycle;Signal;HPM_P1;HPM_P2
2021/11/03 00:01:09;;;;;;;31.07;16.87;;;;;;;6.85;82.58;99647.89;1549880;91;20932;-68
2021/11/03 00:03:35;;;;;;;26.42;16.45;;;;;;;6.84;82.60;99652.19;1545181;92;21008;-68
2021/11/03 00:06:02;;;;;;;26.73;17.83;;;;;;;6.82;82.54;99657.78;1549846;91;20900;-68
2021/11/03 00:08:31;;;;;;;27.77;17.70;;;;;;;6.81;82.60;99658.66;1544985;91;21397;-68
2021/11/03 00:10:58;;;;;;;32.95;15.72;;;;;;;6.80;82.55;99661.25;1549051;91;21490;-68
2021/11/03 00:13:26;;;;;;;33.85;16.00;;;;;;;6.79;82.56;99667.27;1564609;91;20972;-68
2021/11/03 00:15:55;;;;;;;25.55;14.95;;;;;;;6.78;82.54;99673.27;1554886;91;20947;-68
2021/11/03 00:18:22;;;;;;;43.02;14.73;;;;;;;6.76;82.55;99673.30;1541027;91;20951;-68
2021/11/03 00:20:49;;;;;;;29.07;12.95;;;;;;;6.74;82.52;99675.51;1541659;91;20947;-68
2021/11/03 00:23:15;;;;;;;27.40;14.00;;;;;;;6.71;82.56;99677.69;1548451;91;20972;-68
2021/11/03 00:25:46;;;;;;;25.68;13.88;;;;;;;6.71;82.61;99676.84;1541044;91;21456;-68
2021/11/03 00:28:12;;;;;;;29.70;13.80;;;;;;;6.70;82.59;99679.00;1540951;92;20954;-68
2021/11/03 00:30:38;;;;;;;20.97;14.05;;;;;;;6.67;82.58;99685.46;1557845;91;20892;-68
2021/11/03 00:33:09;;;;;;;20.50;13.35;;;;;;;6.66;82.63;99681.20;1546240;91;21417;-68
2021/11/03 00:35:34;;;;;;;22.52;14.33;;;;;;;6.64;82.63;99683.35;1546417;91;21437;-68
2021/11/03 00:38:01;;;;;;;27.73;13.87;;;;;;;6.61;82.60;99683.83;1551585;91;21913;-68
2021/11/03 00:40:33;;;;;;;27.42;12.95;;;;;;;6.60;82.64;99686.84;1541166;91;22058;-68
2021/11/03 00:42:59;;;;;;;24.20;13.13;;;;;;;6.58;82.61;99679.59;1493139;91;21189;-68
2021/11/03 00:45:26;;;;;;;22.25;13.50;;;;;;;6.56;82.65;99678.77;1565096;91;21362;-68
2021/11/03 00:47:52;;;;;;;17.98;14.15;;;;;;;6.56;82.70;99680.05;1565069;91;21899;-68
2021/11/03 00:50:21;;;;;;;23.23;14.00;;;;;;;6.55;82.67;99682.64;1563171;90;20916;-68
2021/11/03 00:52:48;;;;;;;17.90;13.05;;;;;;;6.56;82.73;99677.91;1541064;91;21415;-68
2021/11/03 00:55:14;;;;;;;17.07;13.18;;;;;;;6.57;82.75;99681.74;1541280;92;20995;-68
2021/11/03 00:57:40;;;;;;;19.32;12.25;;;;;;;6.57;82.72;99666.77;1541214;93;21427;-68
2021/11/03 01:00:11;;;;;;;14.73;11.60;;;;;;;6.57;82.77;99676.61;1541424;91;21439;-68
2021/11/03 01:02:38;;;;;;;13.75;11.97;;;;;;;6.58;82.77;99669.75;1559852;91;21008;-68
2021/11/03 01:05:09;;;;;;;13.95;11.57;;;;;;;6.59;82.78;99672.30;1548239;91;21581;-68
2021/11/03 01:07:35;;;;;;;15.75;11.30;;;;;;;6.58;82.71;99672.31;1543052;91;21432;-68
2021/11/03 01:10:02;;;;;;;14.10;12.17;;;;;;;6.58;82.72;99672.31;1503110;93;20923;-68
2021/11/03 01:12:28;;;;;;;15.15;11.80;;;;;;;6.57;82.69;99677.89;1541267;90;21439;-68
2021/11/03 01:14:56;;;;;;;18.52;10.68;;;;;;;6.57;82.78;99683.03;1550046;91;21766;-68
2021/11/03 01:17:22;;;;;;;14.35;11.48;;;;;;;6.58;82.71;99678.74;1565043;91;21472;-68
2021/11/03 01:19:48;;;;;;;15.10;11.97;;;;;;;6.58;82.74;99682.16;1555281;91;21595;-68
2021/11/03 01:22:14;;;;;;;15.03;11.22;;;;;;;6.56;82.74;99676.20;1541001;91;21464;-68
2021/11/03 01:24:40;;;;;;;17.40;11.40;;;;;;;6.59;82.78;99681.72;1541166;93;21401;-68
2021/11/03 01:27:06;;;;;;;16.70;11.43;;;;;;;6.59;82.76;99683.86;1541855;91;21678;-68
2021/11/03 01:29:33;;;;;;;;;;;;;;;6.59;82.78;99677.44;1543400;91;20947;-68
2021/11/03 01:31:59;;;;;;;12.13;10.08;;;;;;;6.59;82.86;99677.44;1505866;91;20632;-68
2021/11/03 01:34:25;;;;;;;17.30;10.23;;;;;;;6.58;82.78;99671.88;1552469;91;21565;-68
2021/11/03 01:36:54;;;;;;;12.55;10.18;;;;;;;6.58;82.79;99676.17;1565120;91;21913;-68
2021/11/03 01:39:20;;;;;;;13.00;10.63;;;;;;;6.57;82.79;99675.33;1565312;91;20908;-68
2021/11/03 01:41:46;;;;;;;14.30;11.17;;;;;;;6.57;82.80;99673.19;1564100;91;21022;-68
2021/11/03 01:44:16;;;;;;;12.55;11.22;;;;;;;6.57;82.77;99674.48;1543853;91;21492;-68
2021/11/03 01:46:56;;;;;;;17.67;11.38;;;;;;;6.56;82.77;99666.36;1541057;92;21843;-68
2021/11/03 01:49:29;;;;;;;13.80;11.30;;;;;;;6.56;82.79;99667.20;1541303;91;20947;-68
2021/11/03 01:52:05;;;;;;;13.22;11.10;;;;;;;6.55;82.79;99668.52;1540914;91;21435;-68
2021/11/03 01:54:49;;;;;;;12.93;10.70;;;;;;;6.53;82.77;99663.40;1541372;91;21460;-68
2021/11/03 01:57:19;;;;;;;13.45;10.53;;;;;;;6.49;82.70;99663.03;1543784;92;20992;-68
2021/11/03 01:59:50;;;;;;;13.75;10.58;;;;;;;6.44;82.63;99663.97;1541074;92;21482;-68
2021/11/03 02:02:19;;;;;;;11.65;10.28;;;;;;;6.38;82.63;99667.47;1541613;91;21408;-68
2021/11/03 02:04:47;;;;;;;12.73;10.08;;;;;;;6.33;82.65;99664.55;1542328;91;20980;-68
2021/11/03 02:07:18;;;;;;;14.33;10.82;;;;;;;6.26;82.66;99663.79;1542298;91;21786;-68
2021/11/03 02:09:45;;;;;;;14.03;11.18;;;;;;;6.23;82.78;99654.88;1564249;91;21848;-68
2021/11/03 02:12:20;;;;;;;11.38;9.63;;;;;;;6.23;82.80;99652.31;1558091;91;21873;-68
2021/11/03 02:14:48;;;;;;;18.52;11.03;;;;;;;6.20;82.78;99649.78;1558200;91;21372;-68
2021/11/03 02:17:23;;;;;;;17.98;11.48;;;;;;;6.20;82.88;99653.63;1564991;91;21920;-68
2021/11/03 02:19:53;;;;;;;13.98;10.60;;;;;;;6.19;82.82;99654.50;1554833;91;21415;-68
2021/11/03 02:22:42;;;;;;;15.93;11.48;;;;;;;6.18;82.84;99650.23;1564974;91;21413;-68
2021/11/03 02:25:23;;;;;;;13.27;10.53;;;;;;;6.15;82.82;99655.41;1552800;91;20964;-68
2021/11/03 02:27:51;;;;;;;10.53;8.95;;;;;;;6.13;82.79;99653.30;1564469;91;20980;-68
2021/11/03 02:30:24;;;;;;;13.13;9.93;;;;;;;6.07;82.70;99649.09;1548084;91;20924;-68
2021/11/03 02:33:04;;;;;;;15.03;11.25;;;;;;;6.04;82.72;99651.70;1560353;91;20999;-68
2021/11/03 02:35:30;;;;;;;14.40;10.53;;;;;;;6.02;82.76;99646.17;1540758;91;20939;-68
2021/11/03 02:37:58;;;;;;;13.55;9.73;;;;;;;5.99;82.75;99650.91;1552396;91;21432;-68
2021/11/03 02:40:32;;;;;;;22.50;11.33;;;;;;;5.95;82.74;99652.67;1540909;91;20939;-68
2021/11/03 02:43:24;;;;;;;14.33;10.38;;;;;;;5.93;82.79;99657.41;1557939;91;21396;-68
2021/11/03 02:45:53;;;;;;;;;;;;;;;5.92;82.79;99660.41;1566575;91;21513;-68
2021/11/03 02:48:27;;;;;;;11.80;9.28;;;;;;;5.89;82.79;99657.03;1557951;91;20175;-68
2021/11/03 02:51:06;;;;;;;16.67;9.58;;;;;;;5.82;82.65;99661.78;1556423;90;21511;-68
2021/11/03 02:53:54;;;;;;;11.48;7.58;;;;;;;5.76;82.64;99658.01;1525487;93;20935;-68
2021/11/03 02:56:26;;;;;;;8.85;7.78;;;;;;;5.72;82.72;99655.91;1540806;92;20991;-68
2021/11/03 02:58:52;;;;;;;15.72;9.40;;;;;;;5.69;82.76;99653.41;1550854;91;20928;-68
2021/11/03 03:01:35;;;;;;;14.68;8.98;;;;;;;5.69;82.80;99657.27;1541011;91;20915;-68
2021/11/03 03:04:09;;;;;;;17.15;11.33;;;;;;;5.66;82.81;99653.45;1545271;91;20943;-68
2021/11/03 03:06:35;;;;;;;17.05;13.30;;;;;;;5.65;82.86;99651.31;1540306;91;20976;-68
2021/11/03 03:09:04;;;;;;;17.95;12.58;;;;;;;5.65;82.90;99649.19;1543434;91;20940;-68
2021/11/03 03:11:42;;;;;;;14.87;11.15;;;;;;;5.64;82.92;99644.48;1564858;91;20964;-68
2021/11/03 03:14:09;;;;;;;16.23;11.08;;;;;;;5.66;82.90;99645.75;1550687;91;20919;-68
2021/11/03 03:16:36;;;;;;;18.05;11.63;;;;;;;5.65;82.88;99650.47;1540930;91;20923;-68
2021/11/03 03:19:03;;;;;;;21.75;13.88;;;;;;;5.64;82.92;99649.62;1555570;91;21390;-68
2021/11/03 03:21:30;;;;;;;21.23;13.60;;;;;;;5.65;82.94;99651.31;1547747;91;21072;-68
2021/11/03 03:23:59;;;;;;;19.82;14.40;;;;;;;5.63;82.94;99650.48;1552477;91;20911;-68
2021/11/03 03:26:34;;;;;;;20.25;14.30;;;;;;;5.64;82.98;99645.77;1525883;92;20973;-68
2021/11/03 03:29:01;;;;;;;20.12;14.55;;;;;;;5.67;82.98;99647.89;1544630;91;21413;-68
2021/11/03 03:31:29;;;;;;;20.02;13.95;;;;;;;5.68;82.97;99644.45;1554339;91;21380;-68
2021/11/03 03:33:59;;;;;;;20.23;14.78;;;;;;;5.66;82.98;99644.47;1549173;91;20935;-68
2021/11/03 03:36:26;;;;;;;21.02;15.48;;;;;;;5.67;82.98;99646.17;1540625;91;21477;-68
2021/11/03 03:38:53;;;;;;;25.02;16.30;;;;;;;5.68;82.98;99642.73;1556064;91;21040;-68
2021/11/03 03:41:23;;;;;;;26.37;16.30;;;;;;;5.69;82.98;99638.03;1564862;91;20920;-68
2021/11/03 03:43:50;;;;;;;24.45;16.55;;;;;;;5.68;82.98;99641.45;1554329;91;20920;-68
2021/11/03 03:46:16;;;;;;;26.85;15.55;;;;;;;5.68;83.00;99640.17;1540744;93;21007;-68
2021/11/03 03:48:42;;;;;;;26.85;16.80;;;;;;;5.68;82.98;99645.30;1541119;91;21048;-68
2021/11/03 03:51:11;;;;;;;23.32;16.20;;;;;;;5.66;82.99;99640.63;1540651;91;21063;-68
2021/11/03 03:53:38;;;;;;;29.15;17.65;;;;;;;5.68;83.04;99642.73;1525520;91;20995;-68
2021/11/03 03:56:04;;;;;;;23.87;17.02;;;;;;;5.68;83.06;99638.05;1552434;91;25090;-68
2021/11/03 03:58:30;;;;;;;;;;;;;;;5.68;83.04;99640.17;1565382;91;21038;-68
2021/11/03 04:00:57;;;;;;;22.15;16.52;;;;;;;5.68;83.17;99641.45;1552394;91;20173;-68
2021/11/03 04:03:24;;;;;;;25.95;17.00;;;;;;;5.69;83.11;99643.16;1560893;91;20975;-68
2021/11/03 04:05:50;;;;;;;;;;;;;;;5.70;83.14;99641.00;1540844;91;20980;-68
2021/11/03 04:08:19;;;;;;;21.95;14.87;;;;;;;5.73;83.26;99643.94;1552080;91;20140;-68
2021/11/03 04:10:46;;;;;;;24.47;16.52;;;;;;;5.73;83.16;99642.22;1561872;91;20920;-68
2021/11/03 04:13:14;;;;;;;23.02;17.30;;;;;;;5.76;83.17;99649.03;1546214;91;25040;-68
2021/11/03 04:15:40;;;;;;;27.13;17.17;;;;;;;5.78;83.17;99655.84;1558491;91;20955;-68
2021/11/03 04:18:07;;;;;;;24.82;16.37;;;;;;;5.80;83.16;99664.80;1565081;91;20939;-68
2021/11/03 04:20:46;;;;;;;27.45;17.40;;;;;;;5.83;83.22;99666.05;1561627;91;20976;-68
2021/11/03 04:23:13;;;;;;;24.30;16.15;;;;;;;5.86;83.20;99669.86;1559236;91;20931;-68
2021/11/03 04:25:39;;;;;;;28.55;18.67;;;;;;;5.87;83.21;99668.56;1558693;91;21003;-68
2021/11/03 04:28:05;;;;;;;28.90;20.43;;;;;;;5.90;83.30;99662.58;1565011;91;20951;-68
2021/11/03 04:30:32;;;;;;;30.10;20.50;;;;;;;5.94;83.34;99668.93;1557004;91;20983;-68
2021/11/03 04:32:58;;;;;;;;;;;;;;;5.99;83.38;99674.01;1547997;91;21008;-68
2021/11/03 04:35:25;;;;;;;40.08;22.60;;;;;;;6.03;83.47;99671.81;1565220;91;20115;-68
2021/11/03 04:37:52;;;;;;;38.00;24.80;;;;;;;6.08;83.43;99675.17;1564686;91;20931;-68
2021/11/03 04:40:23;;;;;;;39.85;25.85;;;;;;;6.14;83.55;99678.95;1561277;91;21000;-68
2021/11/03 04:42:56;;;;;;;48.73;27.25;;;;;;;6.21;83.58;99678.00;1541010;91;20943;-68
2021/11/03 04:45:24;;;;;;;53.78;25.82;;;;;;;6.28;83.55;99680.02;1542075;91;21008;-68
2021/11/03 04:47:50;;;;;;;46.60;26.50;;;;;;;6.34;83.59;99681.22;1558314;91;20915;-68
2021/11/03 04:50:25;;;;;;;44.77;25.35;;;;;;;6.40;83.56;99677.72;1543224;91;26373;-68
2021/11/03 04:52:51;;;;;;;45.12;24.52;;;;;;;6.45;83.59;99684.48;1567528;90;20987;-68
2021/11/03 04:55:17;;;;;;;45.97;24.13;;;;;;;6.49;83.55;99679.72;1562021;90;21735;-68
2021/11/03 04:57:44;;;;;;;56.88;23.87;;;;;;;6.53;83.58;99682.66;1554957;91;20964;-68
2021/11/03 05:00:18;;;;;;;49.70;25.30;;;;;;;6.56;83.58;99682.61;1568948;91;20987;-68
2021/11/03 05:02:45;;;;;;;60.20;23.60;;;;;;;6.59;83.63;99677.44;1567378;90;20996;-68
2021/11/03 05:05:12;;;;;;;49.20;22.80;;;;;;;6.61;83.57;99675.69;1565832;91;20983;-68
2021/11/03 05:07:38;;;;;;;48.60;21.97;;;;;;;6.64;83.59;99674.80;1563263;91;21001;-69
2021/11/03 05:10:08;;;;;;;46.73;23.12;;;;;;;6.65;83.56;99676.50;1525850;91;20969;-69
2021/11/03 05:12:34;;;;;;;40.88;22.75;;;;;;;6.67;83.58;99677.32;1568602;91;20931;-69
2021/11/03 05:15:00;;;;;;;46.98;25.05;;;;;;;6.68;83.58;99683.31;1566603;91;20943;-69
2021/11/03 05:17:26;;;;;;;61.10;23.77;;;;;;;6.68;83.50;99681.59;1553539;90;20951;-69
2021/11/03 05:19:53;;;;;;;39.95;24.65;;;;;;;6.69;83.61;99685.85;1564291;91;20900;-69
2021/11/03 05:22:24;;;;;;;50.00;25.77;;;;;;;6.70;83.56;99677.27;1548743;91;20991;-69
2021/11/03 05:24:49;;;;;;;35.68;23.38;;;;;;;6.71;83.60;99684.55;1558549;91;20996;-69
2021/11/03 05:27:15;;;;;;;46.63;25.60;;;;;;;6.71;83.60;99684.55;1566569;90;20939;-69
2021/11/03 05:29:42;;;;;;;38.13;22.60;;;;;;;6.71;83.62;99687.97;1563469;90;20975;-69
2021/11/03 05:32:08;;;;;;;50.40;26.60;;;;;;;6.72;83.63;99692.23;1567929;91;20919;-69
2021/11/03 05:34:34;;;;;;;54.67;25.82;;;;;;;6.72;83.62;99696.09;1560115;90;20948;-69
2021/11/03 05:37:04;;;;;;;54.10;25.55;;;;;;;6.71;83.61;99696.95;1506123;91;21050;-69
2021/11/03 05:39:32;;;;;;;43.10;26.17;;;;;;;6.70;83.62;99695.26;1557871;91;20920;-69
2021/11/03 05:41:58;;;;;;;48.42;27.37;;;;;;;6.70;83.62;99702.12;1566974;91;20979;-69
2021/11/03 05:44:24;;;;;;;46.30;27.30;;;;;;;6.71;83.67;99705.95;1556106;91;20962;-69
2021/11/03 05:46:57;;;;;;;46.80;26.97;;;;;;;6.71;83.68;99703.81;1545534;91;20983;-69
2021/11/03 05:49:28;;;;;;;44.77;27.52;;;;;;;6.72;83.68;99705.52;1559466;90;21440;-69
2021/11/03 05:51:57;;;;;;;53.00;27.58;;;;;;;6.73;83.72;99711.91;1556811;91;21014;-69
2021/11/03 05:54:27;;;;;;;48.98;28.27;;;;;;;6.75;83.73;99722.16;1564232;91;20971;-69
2021/11/03 05:56:56;;;;;;;50.20;28.45;;;;;;;6.74;83.72;99735.88;1558364;91;21040;-69
2021/11/03 05:59:23;;;;;;;48.30;29.05;;;;;;;6.74;83.72;99735.45;1574917;90;20934;-69
2021/11/03 06:01:50;;;;;;;47.62;28.47;;;;;;;6.74;83.64;99747.01;1563504;90;21014;-69
2021/11/03 06:04:16;;;;;;;46.50;28.60;;;;;;;6.73;83.65;99753.02;1549951;90;21502;-71
2021/11/03 06:06:42;;;;;;;44.08;27.95;;;;;;;6.72;83.67;99755.61;1564560;91;20975;-71
2021/11/03 06:09:09;;;;;;;43.28;27.10;;;;;;;6.74;83.72;99753.86;1535069;91;20983;-71
2021/11/03 06:11:41;;;;;;;;;;;;;;;6.73;83.71;99762.45;1559015;89;20959;-71
2021/11/03 06:14:08;;;;;;;49.27;26.27;;;;;;;6.70;83.83;99761.20;1574441;89;20152;-70
2021/11/03 06:16:34;;;;;;;;;;;;;;;6.71;83.78;99768.03;1577774;90;20971;-71
2021/11/03 06:19:00;;;;;;;40.98;24.00;;;;;;;6.72;83.96;99762.03;1573559;89;20155;-71
2021/11/03 06:21:27;;;;;;;38.25;23.15;;;;;;;6.72;83.79;99764.59;1557580;90;21541;-71
2021/11/03 06:23:53;;;;;;;37.15;23.38;;;;;;;6.71;83.83;99768.03;1558326;91;20927;-71
2021/11/03 06:26:22;;;;;;;39.88;23.35;;;;;;;6.71;83.78;99769.32;1555314;89;21089;-71
2021/11/03 06:28:49;;;;;;;38.65;22.85;;;;;;;6.71;83.80;99771.45;1548919;92;21148;-71
2021/11/03 06:31:35;;;;;;;38.40;23.55;;;;;;;6.72;83.86;99775.72;1571617;89;20955;-71
2021/11/03 06:34:02;;;;;;;;;;;;;;;6.70;83.72;99789.46;1576792;90;20939;-71
2021/11/03 06:36:32;;;;;;;34.08;21.50;;;;;;;6.67;83.81;99794.64;1558168;91;20163;-71
2021/11/03 06:38:59;;;;;;;39.05;22.82;;;;;;;6.64;83.69;99797.66;1568817;89;20984;-71
2021/11/03 06:41:27;;;;;;;36.68;22.75;;;;;;;6.61;83.69;99794.28;1549910;91;20927;-71
2021/11/03 06:43:53;;;;;;;36.20;22.65;;;;;;;6.59;83.76;99798.16;1555181;90;20986;-71
2021/11/03 06:46:19;;;;;;;36.07;22.73;;;;;;;6.58;83.76;99795.17;1573490;91;21652;-71
2021/11/03 06:48:45;;;;;;;36.90;24.03;;;;;;;6.59;83.83;99793.45;1557233;90;20980;-71
2021/11/03 06:51:12;;;;;;;40.03;24.70;;;;;;;6.58;83.78;99792.61;1572521;91;21705;-71
2021/11/03 06:53:38;;;;;;;39.20;25.03;;;;;;;6.57;83.83;99797.33;1552022;91;21101;-71
2021/11/03 06:56:04;;;;;;;45.80;25.00;;;;;;;6.58;83.84;99797.73;1546669;91;20879;-71
2021/11/03 06:58:32;;;;;;;55.63;28.07;;;;;;;6.61;83.94;99798.98;1544766;92;20958;-71
2021/11/03 07:00:59;;;;;;;52.85;28.32;;;;;;;6.61;83.84;99799.42;1556958;90;20935;-71
2021/11/03 07:03:27;;;;;;;;;;;;;;;6.62;83.83;99805.82;1565968;91;21864;-71
2021/11/03 07:05:53;;;;;;;47.62;26.12;;;;;;;6.62;83.96;99804.54;1550826;91;20130;-71
2021/11/03 07:08:22;;;;;;;45.88;27.07;;;;;;;6.64;83.93;99814.36;1560109;91;20935;-71
2021/11/03 07:10:52;;;;;;;52.65;28.67;;;;;;;6.67;83.99;99810.05;1566316;90;20992;-71
2021/11/03 07:13:20;;;;;;;48.68;28.90;;;;;;;6.69;83.92;99810.87;1562686;91;21360;-71
2021/11/03 07:15:49;;;;;;;46.28;27.67;;;;;;;6.70;83.95;99816.44;1564714;90;20911;-71
2021/11/03 07:18:16;;;;;;;57.35;30.68;;;;;;;6.73;83.98;99813.83;1548090;91;20915;-71
2021/11/03 07:20:43;;;;;;;59.55;32.05;;;;;;;6.75;84.01;99810.80;1547430;91;20971;-71
2021/11/03 07:23:11;;;;;;;52.05;30.02;;;;;;;6.78;84.00;99820.57;1561874;91;21360;-71
2021/11/03 07:25:38;;;;;;;47.65;28.07;;;;;;;6.83;84.02;99823.08;1543710;92;21066;-71
2021/11/03 07:28:04;;;;;;;54.45;28.62;;;;;;;6.85;83.96;99824.76;1544138;91;21139;-71
2021/11/03 07:30:35;;;;;;;51.00;29.52;;;;;;;6.87;83.96;99829.88;1543266;92;21153;-71
2021/11/03 07:33:01;;;;;;;45.43;28.27;;;;;;;6.90;84.02;99832.41;1557345;91;21443;-71
2021/11/03 07:35:27;;;;;;;55.13;30.20;;;;;;;6.91;83.93;99827.25;1563093;91;22579;-71
2021/11/03 07:37:56;;;;;;;47.45;27.75;;;;;;;6.91;83.87;99837.52;1556328;90;21333;-71
2021/11/03 07:40:27;;;;;;;52.75;28.70;;;;;;;6.92;83.94;99839.23;1567240;90;21086;-71
2021/11/03 07:42:58;;;;;;;52.55;28.67;;;;;;;6.94;83.99;99833.63;1567410;90;21007;-71
2021/11/03 07:45:27;;;;;;;45.55;26.27;;;;;;;6.99;84.03;99834.85;1558739;90;21142;-72
2021/11/03 07:47:53;;;;;;;47.65;27.48;;;;;;;7.00;83.92;99827.98;1519192;90;21138;-72
2021/11/03 07:50:24;;;;;;;42.73;25.45;;;;;;;7.01;83.92;99832.27;1544264;90;21150;-72
2021/11/03 07:52:51;;;;;;;46.13;27.35;;;;;;;7.03;83.94;99840.80;1510796;89;5000256;-72
2021/11/03 07:55:18;;;;;;;43.58;26.30;;;;;;;7.07;84.03;99837.31;1574080;90;20998;-72
2021/11/03 07:57:44;;;;;;;49.42;27.17;;;;;;;7.10;84.02;99842.41;1572963;90;21297;-72
2021/11/03 08:00:22;;;;;;;47.43;26.87;;;;;;;7.14;84.00;99850.50;1562096;90;21149;-72
2021/11/03 08:02:48;;;;;;;47.20;27.07;;;;;;;7.14;83.94;99855.20;1553675;91;21348;-71
2021/11/03 08:05:17;;;;;;;45.50;27.15;;;;;;;7.16;84.00;99861.17;1564833;89;21075;-72
2021/11/03 08:07:43;;;;;;;48.30;27.17;;;;;;;7.20;84.00;99860.26;1573438;90;21134;-72
2021/11/03 08:10:15;;;;;;;49.48;28.95;;;;;;;7.23;84.03;99859.37;1587930;87;21616;-72
2021/11/03 08:12:43;;;;;;;48.13;26.90;;;;;;;7.29;84.08;99864.39;1570545;90;20930;-72
2021/11/03 08:15:11;;;;;;;54.50;32.37;;;;;;;7.34;83.94;99873.33;1564880;89;22080;-71
2021/11/03 08:17:40;;;;;;;48.58;29.25;;;;;;;7.31;83.85;99871.64;1579813;89;20962;-71
2021/11/03 08:20:10;;;;;;;55.98;31.27;;;;;;;7.29;83.88;99870.38;1558709;90;20981;-72
2021/11/03 08:22:37;;;;;;;44.58;27.90;;;;;;;7.29;83.92;99878.09;1576743;89;20981;-72
2021/11/03 08:25:04;;;;;;;43.40;25.80;;;;;;;7.29;83.87;99883.67;1580224;89;20970;-72
2021/11/03 08:27:31;;;;;;;36.63;23.40;;;;;;;7.24;83.84;99885.49;1578635;89;20983;-72
2021/11/03 08:30:00;;;;;;;40.80;23.05;;;;;;;7.23;83.90;99877.36;1587366;89;20969;-71
2021/11/03 08:32:32;;;;;;;39.08;24.20;;;;;;;7.25;84.02;99880.33;1578077;89;21461;-71
2021/11/03 08:35:01;;;;;;;32.78;20.97;;;;;;;7.30;83.97;99875.94;1564237;90;20945;-71
2021/11/03 08:37:31;;;;;;;38.05;24.02;;;;;;;7.34;84.01;99877.18;1569373;89;21405;-71
2021/11/03 08:40:00;;;;;;;34.27;22.77;;;;;;;7.39;84.05;99877.53;1584762;89;20898;-71
2021/11/03 08:42:26;;;;;;;33.90;23.10;;;;;;;7.47;84.14;99883.84;1548879;89;20991;-72
2021/11/03 08:44:54;;;;;;;36.55;22.17;;;;;;;7.57;84.17;99888.83;1566732;89;21525;-71
2021/11/03 08:47:20;;;;;;;34.23;22.02;;;;;;;7.63;84.10;99884.88;1582268;89;20985;-71
2021/11/03 08:49:48;;;;;;;36.85;24.52;;;;;;;7.70;84.11;99893.78;1550101;90;21006;-71
2021/11/03 08:52:14;;;;;;;35.85;23.10;;;;;;;7.74;84.06;99891.14;1582354;89;20962;-71
2021/11/03 08:54:45;;;;;;;45.98;26.65;;;;;;;7.76;84.04;99891.11;1584921;89;21009;-71
2021/11/03 08:57:12;;;;;;;45.85;27.32;;;;;;;7.78;84.00;99886.36;1579961;89;20961;-71
2021/11/03 08:59:38;;;;;;;45.35;28.85;;;;;;;7.78;84.00;99885.06;1590432;89;20933;-71
2021/11/03 09:02:04;;;;;;;43.83;27.80;;;;;;;7.81;84.00;99884.14;1594190;89;20927;-71
2021/11/03 09:04:34;;;;;;;51.90;31.15;;;;;;;7.80;84.00;99885.05;1576129;89;20929;-73
2021/11/03 09:07:00;;;;;;;52.95;30.55;;;;;;;7.83;84.07;99884.96;1579412;89;20986;-73
2021/11/03 09:09:26;;;;;;;45.77;30.37;;;;;;;7.86;84.02;99899.07;1588011;89;20942;-73
2021/11/03 09:11:52;;;;;;;47.88;27.02;;;;;;;7.90;84.12;99902.00;1578876;89;21524;-73
2021/11/03 09:14:21;;;;;;;46.40;27.17;;;;;;;7.95;84.11;99896.34;1582614;89;20949;-73
2021/11/03 09:16:50;;;;;;;46.05;28.00;;;;;;;7.97;84.01;99896.73;1582575;89;20981;-73
2021/11/03 09:19:16;;;;;;;44.85;26.33;;;;;;;7.98;84.00;99889.86;1579846;89;20949;-73
2021/11/03 09:21:43;;;;;;;;;;;;;;;8.01;84.06;99889.80;1584364;89;20925;-73
2021/11/03 09:24:12;;;;;;;41.73;26.77;;;;;;;8.07;84.16;99897.86;1578475;90;20939;-73
2021/11/03 09:26:39;;;;;;;44.67;26.12;;;;;;;8.10;84.07;99892.66;1579462;89;20978;-73
2021/11/03 09:29:06;;;;;;;40.92;26.60;;;;;;;8.15;84.10;99899.87;1584415;88;20948;-73
2021/11/03 09:31:33;;;;;;;39.55;26.20;;;;;;;8.21;84.17;99902.34;1512983;89;21537;-73
2021/11/03 09:34:00;;;;;;;39.60;25.17;;;;;;;8.29;84.17;99895.33;1582312;89;20992;-73
2021/11/03 09:36:34;;;;;;;40.83;26.30;;;;;;;8.38;84.17;99894.31;1590899;89;20964;-73
2021/11/03 09:39:00;;;;;;;42.70;27.75;;;;;;;8.46;84.14;99899.73;1574412;89;20944;-73
2021/11/03 09:41:41;;;;;;;49.08;29.02;;;;;;;8.49;84.04;99891.94;1587528;89;20982;-73
2021/11/03 09:44:29;;;;;;;44.20;27.52;;;;;;;8.54;84.05;99891.41;1575953;89;20945;-73
2021/11/03 09:47:00;;;;;;;43.02;28.38;;;;;;;8.62;84.10;99891.27;1560491;89;20974;-73
2021/11/03 09:49:40;;;;;;;46.50;28.27;;;;;;;8.69;84.05;99884.27;1573440;89;20909;-73
2021/11/03 09:52:36;;;;;;;38.45;26.65;;;;;;;8.80;84.19;99884.90;1579957;89;20913;-73
2021/11/03 09:55:23;;;;;;;36.90;25.75;;;;;;;8.92;84.12;99879.46;1534317;89;21022;-73
2021/11/03 09:58:08;;;;;;;40.30;26.17;;;;;;;8.98;84.03;99875.47;1564683;90;20977;-73
2021/11/03 10:00:51;;;;;;;44.00;27.07;;;;;;;9.08;84.07;99886.44;1589964;88;20987;-73
2021/11/03 10:03:47;;;;;;;40.83;27.37;;;;;;;9.17;84.09;99881.92;1586538;88;20933;-73
2021/11/03 10:06:30;;;;;;;35.58;25.85;;;;;;;9.26;83.95;99884.30;1588046;88;21496;-73
2021/11/03 10:08:56;;;;;;;35.52;24.77;;;;;;;9.30;83.97;99887.66;1594094;88;20904;-73
2021/11/03 10:11:39;;;;;;;35.80;24.20;;;;;;;9.35;83.91;99887.13;1584013;88;20952;-73
2021/11/03 10:14:07;;;;;;;33.65;23.45;;;;;;;9.36;83.86;99892.66;1565001;90;21544;-73
2021/11/03 10:16:43;;;;;;;37.00;24.87;;;;;;;9.38;83.87;99898.62;1588481;88;21172;-73
2021/11/03 10:19:20;;;;;;;36.68;26.37;;;;;;;9.41;83.87;99896.42;1569349;90;21652;-73
2021/11/03 10:21:55;;;;;;;37.15;25.02;;;;;;;9.46;83.96;99895.88;1583202;88;21074;-73
2021/11/03 10:24:35;;;;;;;37.03;24.37;;;;;;;9.50;83.89;99898.35;1582913;89;21396;-73
2021/11/03 10:27:19;;;;;;;35.55;25.02;;;;;;;9.56;83.95;99896.92;1587513;88;20988;-73
2021/11/03 10:29:58;;;;;;;36.20;24.82;;;;;;;9.60;83.91;99901.13;1587542;88;21514;-73
2021/11/03 10:32:38;;;;;;;35.58;24.23;;;;;;;9.67;83.90;99900.98;1580148;88;20998;-73
2021/11/03 10:35:37;;;;;;;35.90;25.17;;;;;;;9.72;83.89;99899.14;1566004;90;21575;-74
2021/11/03 10:38:15;;;;;;;32.20;24.90;;;;;;;9.79;83.89;99898.11;1580847;88;21710;-74
2021/11/03 10:41:05;;;;;;;32.15;24.92;;;;;;;9.81;83.79;99893.76;1581496;89;21078;-74
2021/11/03 10:43:42;;;;;;;33.42;24.98;;;;;;;9.84;83.79;99893.69;1585144;88;21455;-73
2021/11/03 10:46:26;;;;;;;37.25;25.00;;;;;;;9.90;83.79;99891.77;1594637;89;21545;-73
2021/11/03 10:49:21;;;;;;;33.60;23.20;;;;;;;9.95;83.83;99890.36;1587232;88;21453;-73
2021/11/03 10:51:47;;;;;;;32.75;22.75;;;;;;;10.01;83.86;99888.08;1558024;90;21738;-73
2021/11/03 10:54:19;;;;;;;32.35;22.07;;;;;;;10.07;83.76;99889.21;1572152;89;21082;-73
2021/11/03 10:56:59;;;;;;;33.55;20.57;;;;;;;10.09;83.76;99890.02;1594683;88;21416;-73
2021/11/03 10:59:31;;;;;;;28.55;20.15;;;;;;;10.10;83.61;99893.86;1579737;90;21588;-73
2021/11/03 11:02:26;;;;;;;25.15;18.98;;;;;;;10.07;83.58;99890.06;1583867;88;21118;-73
2021/11/03 11:04:59;;;;;;;27.95;19.23;;;;;;;10.08;83.60;99896.08;1554244;90;21654;-73
2021/11/03 11:07:36;;;;;;;26.45;19.40;;;;;;;10.08;83.54;99896.92;1596061;88;21450;-73
2021/11/03 11:10:31;;;;;;;;;;;;;;;10.09;83.57;99899.06;1590989;88;21461;-73
2021/11/03 11:12:59;;;;;;;21.55;17.80;;;;;;;10.07;83.40;99893.09;1591368;89;20493;-73
2021/11/03 11:15:40;;;;;;;25.17;18.05;;;;;;;10.06;83.51;99891.39;1593155;88;21514;-73
2021/11/03 11:18:22;;;;;;;21.82;17.73;;;;;;;10.06;83.57;99892.68;1584550;88;21519;-73
2021/11/03 11:20:54;;;;;;;25.23;18.15;;;;;;;10.09;83.53;99892.60;1594758;88;21493;-73
2021/11/03 11:23:38;;;;;;;25.77;18.77;;;;;;;10.11;83.50;99890.83;1575027;90;21448;-73
2021/11/03 11:26:37;;;;;;;22.77;18.42;;;;;;;10.12;83.50;99893.81;1576480;88;21398;-73
2021/11/03 11:29:20;;;;;;;27.02;19.45;;;;;;;10.13;83.52;99891.64;1559648;90;21464;-73
2021/11/03 11:31:57;;;;;;;23.22;18.60;;;;;;;10.14;83.42;99892.89;1588070;88;21354;-73
2021/11/03 11:34:43;;;;;;;25.12;19.75;;;;;;;10.19;83.45;99892.77;1593650;88;21555;-73
2021/11/03 11:37:36;;;;;;;26.10;19.70;;;;;;;10.20;83.45;99895.35;1585847;87;21532;-74
2021/11/03 11:40:40;;;;;;;22.32;18.25;;;;;;;10.22;83.42;99893.58;1567919;90;21519;-73
2021/11/03 11:43:32;;;;;;;24.87;19.60;;;;;;;10.24;83.39;99892.24;1589236;88;21428;-73
2021/11/03 11:45:55;;;;;;;27.22;21.02;;;;;;;10.31;83.46;99890.34;1585522;88;20940;-73